메인 페이지
METAR-TAF:

METAR-TAF

공항 :

Guaratinguetá, 상파울루, 브라질

위도: 22-47S, 경도: 045-12W, 고도: 537m

현재 날씨관측

예보는 1 시간 40분 전, 22:00시(UTC)에 발표되었습니다.
북동3kt
온도 25°C
습도 65%
기압 1016 hPa
시정 10km 이상
고도 3000ft 상공 구름 조금
고도 8000ft 상공 구름 많음

METAR: SBGW 142200Z 04003KT 9999 FEW030 BKN080 25/18 Q1016

시각: 20:40 (23:40 UTC)

예보

예보는 8 시간 40분 전, 15:00시(UTC)에 발표되었습니다.
예보 대상 시간: 14일 18시부터 15일 06시까지 (UTC)
동북동7kt
시정 10km 이상
고도 3000ft 상공 구름 보통
전환 중
15일 02시부터 15일 04시까지 (UTC)
고도 1200ft 상공 구름 보통

TAF: SBGW 141500Z 1418/1506 06007KT 9999 SCT030 TX28/1418Z TN20/1506Z BECMG 1502/1504 SCT012 RMK PEC

4,000개 이상의 공항 관측 자료 및 예보 (METAR 및 TAF 보고).

지도상에서 검색 가능한 기상관측소가 노란 점과 빨간 점으로 표시되어 있습니다.

기상관측소 명을 보려면 표시 위로 마우스를 이동하세요.

날씨 관측과 예보를 보려면 클릭하세요.

지도 변경 : 확대하려면 엑스 표시가 있는 녹색 버튼, 축소하려면 빼기 표시가 있는 녹색 버튼, 다음 페이지의 지도를 보려면 녹색 화살표를 클릭하세요.


METAR-TAF: